Terminal Aerodrome Forecast
Issued by NWS

Home | Current Version | Previous Version | Text Only | Print | Product List | Glossary On
Versions: 1 2 3 4 5 6 7 8 9 10 11 12 13
000
FTUS41 KBTV 250859 AAA
TAFPBG
TAF AMD
KPBG 250859Z 2509/2606 VRB03KT P6SM -SHRA OVC025
      TEMPO 2509/2511 5SM -SHRA BR BKN015 OVC035
     FM251200 VRB03KT P6SM VCSH OVC030
     FM251600 01005KT P6SM BKN035
     FM251900 36006KT P6SM SCT050
     FM260000 VRB02KT P6SM SKC=

USA.gov is the U.S. government's official web portal to all federal, state and local government web resources and services.